sensor_id;sensor_type;location;lat;lon;timestamp;temperature;humidity
35962;DHT22;22044;48.298;10.008;2023-07-13T00:02:33;18.60;99.90
35962;DHT22;22044;48.298;10.008;2023-07-13T00:05:22;18.70;99.90
35962;DHT22;22044;48.298;10.008;2023-07-13T00:08:08;18.70;99.90
35962;DHT22;22044;48.298;10.008;2023-07-13T00:10:55;18.70;99.90
35962;DHT22;22044;48.298;10.008;2023-07-13T00:13:43;18.70;99.90
35962;DHT22;22044;48.298;10.008;2023-07-13T00:16:29;18.70;99.90
35962;DHT22;22044;48.298;10.008;2023-07-13T00:19:16;18.80;99.90
35962;DHT22;22044;48.298;10.008;2023-07-13T00:22:03;18.70;99.90
35962;DHT22;22044;48.298;10.008;2023-07-13T00:24:48;18.90;99.90
35962;DHT22;22044;48.298;10.008;2023-07-13T00:27:37;18.80;99.90
35962;DHT22;22044;48.298;10.008;2023-07-13T00:30:25;18.70;99.90
35962;DHT22;22044;48.298;10.008;2023-07-13T00:33:10;18.50;99.90
35962;DHT22;22044;48.298;10.008;2023-07-13T00:35:56;18.30;99.90
35962;DHT22;22044;48.298;10.008;2023-07-13T00:38:43;18.30;99.90
35962;DHT22;22044;48.298;10.008;2023-07-13T00:41:29;18.30;99.90
35962;DHT22;22044;48.298;10.008;2023-07-13T00:44:16;18.30;99.90
35962;DHT22;22044;48.298;10.008;2023-07-13T00:47:03;18.40;99.90
35962;DHT22;22044;48.298;10.008;2023-07-13T00:49:50;18.40;99.90
35962;DHT22;22044;48.298;10.008;2023-07-13T00:52:39;18.30;99.90
35962;DHT22;22044;48.298;10.008;2023-07-13T00:55:25;18.30;99.90
35962;DHT22;22044;48.298;10.008;2023-07-13T00:58:11;18.20;99.90
35962;DHT22;22044;48.298;10.008;2023-07-13T01:00:57;18.20;99.90
35962;DHT22;22044;48.298;10.008;2023-07-13T01:03:44;18.30;99.90
35962;DHT22;22044;48.298;10.008;2023-07-13T01:06:31;18.30;99.90
35962;DHT22;22044;48.298;10.008;2023-07-13T01:09:18;18.30;99.90
35962;DHT22;22044;48.298;10.008;2023-07-13T01:12:06;18.00;99.90
35962;DHT22;22044;48.298;10.008;2023-07-13T01:14:57;17.80;99.90
35962;DHT22;22044;48.298;10.008;2023-07-13T01:17:44;17.50;99.90
35962;DHT22;22044;48.298;10.008;2023-07-13T01:20:31;17.40;99.90
35962;DHT22;22044;48.298;10.008;2023-07-13T01:23:23;17.20;99.90
35962;DHT22;22044;48.298;10.008;2023-07-13T01:26:09;17.10;99.90
35962;DHT22;22044;48.298;10.008;2023-07-13T01:28:55;17.10;99.90
35962;DHT22;22044;48.298;10.008;2023-07-13T01:31:41;17.10;99.90
35962;DHT22;22044;48.298;10.008;2023-07-13T01:34:28;17.20;99.90
35962;DHT22;22044;48.298;10.008;2023-07-13T01:37:14;17.30;99.90
35962;DHT22;22044;48.298;10.008;2023-07-13T01:40:01;17.20;99.90
35962;DHT22;22044;48.298;10.008;2023-07-13T01:42:48;17.20;99.90
35962;DHT22;22044;48.298;10.008;2023-07-13T01:45:37;17.00;99.90
35962;DHT22;22044;48.298;10.008;2023-07-13T01:48:23;17.00;99.90
35962;DHT22;22044;48.298;10.008;2023-07-13T01:51:08;16.90;99.90
35962;DHT22;22044;48.298;10.008;2023-07-13T01:53:54;16.90;99.90
35962;DHT22;22044;48.298;10.008;2023-07-13T01:56:42;17.10;99.90
35962;DHT22;22044;48.298;10.008;2023-07-13T01:59:27;17.20;99.90
35962;DHT22;22044;48.298;10.008;2023-07-13T02:02:13;17.40;99.90
35962;DHT22;22044;48.298;10.008;2023-07-13T02:04:58;17.50;99.90
35962;DHT22;22044;48.298;10.008;2023-07-13T02:07:44;17.50;99.90
35962;DHT22;22044;48.298;10.008;2023-07-13T02:10:30;17.50;99.90
35962;DHT22;22044;48.298;10.008;2023-07-13T02:13:16;17.50;99.90
35962;DHT22;22044;48.298;10.008;2023-07-13T02:16:02;17.50;99.90
35962;DHT22;22044;48.298;10.008;2023-07-13T02:18:48;17.50;99.90
35962;DHT22;22044;48.298;10.008;2023-07-13T02:21:36;17.30;99.90
35962;DHT22;22044;48.298;10.008;2023-07-13T02:24:22;17.30;99.90
35962;DHT22;22044;48.298;10.008;2023-07-13T02:27:07;17.40;99.90
35962;DHT22;22044;48.298;10.008;2023-07-13T02:29:54;17.40;99.90
35962;DHT22;22044;48.298;10.008;2023-07-13T02:32:39;17.40;99.90
35962;DHT22;22044;48.298;10.008;2023-07-13T02:35:25;17.50;99.90
35962;DHT22;22044;48.298;10.008;2023-07-13T02:38:11;17.50;99.90
35962;DHT22;22044;48.298;10.008;2023-07-13T02:40:56;17.40;99.90
35962;DHT22;22044;48.298;10.008;2023-07-13T02:43:42;17.40;99.90
35962;DHT22;22044;48.298;10.008;2023-07-13T02:46:29;17.40;99.90
35962;DHT22;22044;48.298;10.008;2023-07-13T02:49:14;17.50;99.90
35962;DHT22;22044;48.298;10.008;2023-07-13T02:52:00;17.50;99.90
35962;DHT22;22044;48.298;10.008;2023-07-13T02:54:46;17.50;99.90
35962;DHT22;22044;48.298;10.008;2023-07-13T02:57:32;17.40;99.90
35962;DHT22;22044;48.298;10.008;2023-07-13T03:00:18;17.30;99.90
35962;DHT22;22044;48.298;10.008;2023-07-13T03:03:05;17.00;99.90
35962;DHT22;22044;48.298;10.008;2023-07-13T03:05:59;16.90;99.90
35962;DHT22;22044;48.298;10.008;2023-07-13T03:08:48;16.80;99.90
35962;DHT22;22044;48.298;10.008;2023-07-13T03:11:35;16.90;99.90
35962;DHT22;22044;48.298;10.008;2023-07-13T03:14:43;17.00;99.90
35962;DHT22;22044;48.298;10.008;2023-07-13T03:17:28;17.00;99.90
35962;DHT22;22044;48.298;10.008;2023-07-13T03:20:16;17.10;99.90
35962;DHT22;22044;48.298;10.008;2023-07-13T03:23:01;17.10;99.90
35962;DHT22;22044;48.298;10.008;2023-07-13T03:25:48;17.10;99.90
35962;DHT22;22044;48.298;10.008;2023-07-13T03:28:34;17.20;99.90
35962;DHT22;22044;48.298;10.008;2023-07-13T03:31:26;17.10;99.90
35962;DHT22;22044;48.298;10.008;2023-07-13T03:34:12;17.10;99.90
35962;DHT22;22044;48.298;10.008;2023-07-13T03:37:00;17.10;99.90
35962;DHT22;22044;48.298;10.008;2023-07-13T03:39:46;17.10;99.90
35962;DHT22;22044;48.298;10.008;2023-07-13T03:42:33;17.10;99.90
35962;DHT22;22044;48.298;10.008;2023-07-13T03:45:19;17.10;99.90
35962;DHT22;22044;48.298;10.008;2023-07-13T03:48:05;17.10;99.90
35962;DHT22;22044;48.298;10.008;2023-07-13T03:50:51;17.20;99.90
35962;DHT22;22044;48.298;10.008;2023-07-13T03:53:40;17.10;99.90
35962;DHT22;22044;48.298;10.008;2023-07-13T03:56:26;16.90;99.90
35962;DHT22;22044;48.298;10.008;2023-07-13T03:59:11;16.70;99.90
35962;DHT22;22044;48.298;10.008;2023-07-13T04:01:57;16.80;99.90
35962;DHT22;22044;48.298;10.008;2023-07-13T04:04:43;16.60;99.90
35962;DHT22;22044;48.298;10.008;2023-07-13T04:07:28;16.70;99.90
35962;DHT22;22044;48.298;10.008;2023-07-13T04:10:16;16.50;99.90
35962;DHT22;22044;48.298;10.008;2023-07-13T04:13:01;16.60;99.90
35962;DHT22;22044;48.298;10.008;2023-07-13T04:15:47;16.60;99.90
35962;DHT22;22044;48.298;10.008;2023-07-13T04:18:32;16.60;99.90
35962;DHT22;22044;48.298;10.008;2023-07-13T04:21:18;16.60;99.90
35962;DHT22;22044;48.298;10.008;2023-07-13T04:24:04;16.60;99.90
35962;DHT22;22044;48.298;10.008;2023-07-13T04:26:51;16.50;99.90
35962;DHT22;22044;48.298;10.008;2023-07-13T04:29:37;16.40;99.90
35962;DHT22;22044;48.298;10.008;2023-07-13T04:32:22;16.40;99.90
35962;DHT22;22044;48.298;10.008;2023-07-13T04:35:08;16.30;99.90
35962;DHT22;22044;48.298;10.008;2023-07-13T04:37:54;16.40;99.90
35962;DHT22;22044;48.298;10.008;2023-07-13T04:40:40;16.50;99.90
35962;DHT22;22044;48.298;10.008;2023-07-13T04:43:27;16.60;99.90
35962;DHT22;22044;48.298;10.008;2023-07-13T04:46:14;16.40;99.90
35962;DHT22;22044;48.298;10.008;2023-07-13T04:49:01;16.40;99.90
35962;DHT22;22044;48.298;10.008;2023-07-13T04:51:48;16.40;99.90
35962;DHT22;22044;48.298;10.008;2023-07-13T04:54:34;16.30;99.90
35962;DHT22;22044;48.298;10.008;2023-07-13T04:57:19;16.30;99.90
35962;DHT22;22044;48.298;10.008;2023-07-13T05:00:07;16.30;99.90
35962;DHT22;22044;48.298;10.008;2023-07-13T05:02:54;16.40;99.90
35962;DHT22;22044;48.298;10.008;2023-07-13T05:05:40;16.50;99.90
35962;DHT22;22044;48.298;10.008;2023-07-13T05:08:26;16.60;99.90
35962;DHT22;22044;48.298;10.008;2023-07-13T05:11:11;16.60;99.90
35962;DHT22;22044;48.298;10.008;2023-07-13T05:13:57;16.60;99.90
35962;DHT22;22044;48.298;10.008;2023-07-13T05:16:44;16.60;99.90
35962;DHT22;22044;48.298;10.008;2023-07-13T05:19:30;16.50;99.90
35962;DHT22;22044;48.298;10.008;2023-07-13T05:22:15;16.50;99.90
35962;DHT22;22044;48.298;10.008;2023-07-13T05:25:01;16.50;99.90
35962;DHT22;22044;48.298;10.008;2023-07-13T05:27:47;16.40;99.90
35962;DHT22;22044;48.298;10.008;2023-07-13T05:30:32;16.50;99.90
35962;DHT22;22044;48.298;10.008;2023-07-13T05:33:20;16.50;99.90
35962;DHT22;22044;48.298;10.008;2023-07-13T05:36:06;16.70;99.90
35962;DHT22;22044;48.298;10.008;2023-07-13T05:38:51;16.80;99.90
35962;DHT22;22044;48.298;10.008;2023-07-13T05:41:37;17.00;99.90
35962;DHT22;22044;48.298;10.008;2023-07-13T05:44:23;16.90;99.90
35962;DHT22;22044;48.298;10.008;2023-07-13T05:47:08;16.90;99.90
35962;DHT22;22044;48.298;10.008;2023-07-13T05:49:55;16.90;99.90
35962;DHT22;22044;48.298;10.008;2023-07-13T05:52:41;17.10;99.90
35962;DHT22;22044;48.298;10.008;2023-07-13T05:55:26;17.20;99.90
35962;DHT22;22044;48.298;10.008;2023-07-13T05:58:12;17.40;99.90
35962;DHT22;22044;48.298;10.008;2023-07-13T06:01:00;17.40;99.90
35962;DHT22;22044;48.298;10.008;2023-07-13T06:03:46;17.60;99.90
35962;DHT22;22044;48.298;10.008;2023-07-13T06:06:33;17.50;99.90
35962;DHT22;22044;48.298;10.008;2023-07-13T06:09:18;17.60;99.90
35962;DHT22;22044;48.298;10.008;2023-07-13T06:12:05;17.70;99.90
35962;DHT22;22044;48.298;10.008;2023-07-13T06:14:50;17.80;99.90
35962;DHT22;22044;48.298;10.008;2023-07-13T06:17:36;17.90;99.90
35962;DHT22;22044;48.298;10.008;2023-07-13T06:20:22;17.90;99.90
35962;DHT22;22044;48.298;10.008;2023-07-13T06:23:09;18.00;99.90
35962;DHT22;22044;48.298;10.008;2023-07-13T06:25:55;18.10;99.90
35962;DHT22;22044;48.298;10.008;2023-07-13T06:28:40;18.10;99.90
35962;DHT22;22044;48.298;10.008;2023-07-13T06:31:26;18.10;99.90
35962;DHT22;22044;48.298;10.008;2023-07-13T06:34:12;18.10;99.90
35962;DHT22;22044;48.298;10.008;2023-07-13T06:36:58;18.10;99.90
35962;DHT22;22044;48.298;10.008;2023-07-13T06:39:44;18.10;99.90
35962;DHT22;22044;48.298;10.008;2023-07-13T06:42:30;18.10;99.90
35962;DHT22;22044;48.298;10.008;2023-07-13T06:45:15;18.30;99.90
35962;DHT22;22044;48.298;10.008;2023-07-13T06:48:01;18.30;99.90
35962;DHT22;22044;48.298;10.008;2023-07-13T06:50:48;18.30;99.90
35962;DHT22;22044;48.298;10.008;2023-07-13T06:53:35;18.40;99.90
35962;DHT22;22044;48.298;10.008;2023-07-13T06:56:22;18.40;99.90
35962;DHT22;22044;48.298;10.008;2023-07-13T06:59:08;18.50;99.90
35962;DHT22;22044;48.298;10.008;2023-07-13T07:01:53;18.50;99.90
35962;DHT22;22044;48.298;10.008;2023-07-13T07:04:39;18.50;99.90
35962;DHT22;22044;48.298;10.008;2023-07-13T07:07:25;18.60;99.90
35962;DHT22;22044;48.298;10.008;2023-07-13T07:10:10;18.60;99.90
35962;DHT22;22044;48.298;10.008;2023-07-13T07:12:57;18.70;99.90
35962;DHT22;22044;48.298;10.008;2023-07-13T07:15:43;18.80;99.90
35962;DHT22;22044;48.298;10.008;2023-07-13T07:18:28;18.80;99.90
35962;DHT22;22044;48.298;10.008;2023-07-13T07:21:14;18.80;99.90
35962;DHT22;22044;48.298;10.008;2023-07-13T07:24:00;18.90;99.90
35962;DHT22;22044;48.298;10.008;2023-07-13T07:26:47;18.80;99.90
35962;DHT22;22044;48.298;10.008;2023-07-13T07:29:34;18.90;99.90
35962;DHT22;22044;48.298;10.008;2023-07-13T07:32:20;18.80;99.90
35962;DHT22;22044;48.298;10.008;2023-07-13T07:35:06;18.80;99.90
35962;DHT22;22044;48.298;10.008;2023-07-13T07:37:52;18.90;99.90
35962;DHT22;22044;48.298;10.008;2023-07-13T07:40:38;19.00;99.90
35962;DHT22;22044;48.298;10.008;2023-07-13T07:43:24;19.00;99.90
35962;DHT22;22044;48.298;10.008;2023-07-13T07:46:11;18.70;99.90
35962;DHT22;22044;48.298;10.008;2023-07-13T07:48:56;18.50;99.90
35962;DHT22;22044;48.298;10.008;2023-07-13T07:51:42;18.30;99.90
35962;DHT22;22044;48.298;10.008;2023-07-13T07:54:28;18.50;99.90
35962;DHT22;22044;48.298;10.008;2023-07-13T07:57:13;18.70;99.90
35962;DHT22;22044;48.298;10.008;2023-07-13T07:59:59;18.90;99.90
35962;DHT22;22044;48.298;10.008;2023-07-13T08:02:46;19.00;99.90
35962;DHT22;22044;48.298;10.008;2023-07-13T08:05:35;18.70;99.90
35962;DHT22;22044;48.298;10.008;2023-07-13T08:08:20;18.50;99.90
35962;DHT22;22044;48.298;10.008;2023-07-13T08:11:08;18.50;99.90
35962;DHT22;22044;48.298;10.008;2023-07-13T08:13:54;18.70;99.90
35962;DHT22;22044;48.298;10.008;2023-07-13T08:16:39;18.70;99.90
35962;DHT22;22044;48.298;10.008;2023-07-13T08:19:26;18.70;99.90
35962;DHT22;22044;48.298;10.008;2023-07-13T08:22:11;19.00;99.90
35962;DHT22;22044;48.298;10.008;2023-07-13T08:24:58;19.20;99.90
35962;DHT22;22044;48.298;10.008;2023-07-13T08:27:44;19.30;99.90
35962;DHT22;22044;48.298;10.008;2023-07-13T08:30:29;19.40;99.90
35962;DHT22;22044;48.298;10.008;2023-07-13T08:33:15;19.50;99.90
35962;DHT22;22044;48.298;10.008;2023-07-13T08:36:04;19.50;99.90
35962;DHT22;22044;48.298;10.008;2023-07-13T08:38:50;19.70;99.90
35962;DHT22;22044;48.298;10.008;2023-07-13T08:41:36;19.80;99.90
35962;DHT22;22044;48.298;10.008;2023-07-13T08:44:27;19.80;99.90
35962;DHT22;22044;48.298;10.008;2023-07-13T08:47:16;19.80;99.90
35962;DHT22;22044;48.298;10.008;2023-07-13T08:50:02;19.80;99.90
35962;DHT22;22044;48.298;10.008;2023-07-13T08:52:49;19.80;99.90
35962;DHT22;22044;48.298;10.008;2023-07-13T08:55:36;19.70;99.90
35962;DHT22;22044;48.298;10.008;2023-07-13T08:58:24;19.60;99.90
35962;DHT22;22044;48.298;10.008;2023-07-13T09:01:17;19.50;99.90
35962;DHT22;22044;48.298;10.008;2023-07-13T09:04:09;19.70;99.90
35962;DHT22;22044;48.298;10.008;2023-07-13T09:07:03;19.70;99.90
35962;DHT22;22044;48.298;10.008;2023-07-13T09:10:02;19.90;99.90
35962;DHT22;22044;48.298;10.008;2023-07-13T09:13:00;20.00;99.90
35962;DHT22;22044;48.298;10.008;2023-07-13T09:15:49;20.40;99.90
35962;DHT22;22044;48.298;10.008;2023-07-13T09:18:38;20.60;99.90
35962;DHT22;22044;48.298;10.008;2023-07-13T09:21:28;20.60;99.90
35962;DHT22;22044;48.298;10.008;2023-07-13T09:24:28;20.50;99.90
35962;DHT22;22044;48.298;10.008;2023-07-13T09:27:18;20.10;99.90
35962;DHT22;22044;48.298;10.008;2023-07-13T09:30:22;20.40;99.90
35962;DHT22;22044;48.298;10.008;2023-07-13T09:33:09;20.20;99.90
35962;DHT22;22044;48.298;10.008;2023-07-13T09:35:55;20.60;99.90
35962;DHT22;22044;48.298;10.008;2023-07-13T09:38:41;20.70;99.90
35962;DHT22;22044;48.298;10.008;2023-07-13T09:41:31;20.90;99.90
35962;DHT22;22044;48.298;10.008;2023-07-13T09:44:29;21.10;99.90
35962;DHT22;22044;48.298;10.008;2023-07-13T09:47:16;21.30;99.90
35962;DHT22;22044;48.298;10.008;2023-07-13T09:50:04;21.40;99.90
35962;DHT22;22044;48.298;10.008;2023-07-13T09:52:51;21.40;99.90
35962;DHT22;22044;48.298;10.008;2023-07-13T09:55:39;21.50;99.90
35962;DHT22;22044;48.298;10.008;2023-07-13T09:58:29;21.20;99.90
35962;DHT22;22044;48.298;10.008;2023-07-13T10:01:31;21.60;99.90
35962;DHT22;22044;48.298;10.008;2023-07-13T10:04:19;22.00;99.90
35962;DHT22;22044;48.298;10.008;2023-07-13T10:07:06;21.90;99.90
35962;DHT22;22044;48.298;10.008;2023-07-13T10:09:53;21.70;99.90
35962;DHT22;22044;48.298;10.008;2023-07-13T10:12:39;21.90;99.90
35962;DHT22;22044;48.298;10.008;2023-07-13T10:15:25;22.10;99.90
35962;DHT22;22044;48.298;10.008;2023-07-13T10:18:13;22.20;99.90
35962;DHT22;22044;48.298;10.008;2023-07-13T10:21:09;22.10;99.90
35962;DHT22;22044;48.298;10.008;2023-07-13T10:24:04;21.90;99.90
35962;DHT22;22044;48.298;10.008;2023-07-13T10:26:55;21.90;99.90
35962;DHT22;22044;48.298;10.008;2023-07-13T10:29:46;22.00;99.90
35962;DHT22;22044;48.298;10.008;2023-07-13T10:32:33;21.40;99.90
35962;DHT22;22044;48.298;10.008;2023-07-13T10:35:21;21.10;99.90
35962;DHT22;22044;48.298;10.008;2023-07-13T10:38:11;21.30;99.90
35962;DHT22;22044;48.298;10.008;2023-07-13T10:41:02;21.70;99.90
35962;DHT22;22044;48.298;10.008;2023-07-13T10:43:51;21.80;99.90
35962;DHT22;22044;48.298;10.008;2023-07-13T10:46:38;21.80;99.90
35962;DHT22;22044;48.298;10.008;2023-07-13T10:49:24;22.10;99.90
35962;DHT22;22044;48.298;10.008;2023-07-13T10:52:42;22.30;99.90
35962;DHT22;22044;48.298;10.008;2023-07-13T10:55:37;22.60;99.90
35962;DHT22;22044;48.298;10.008;2023-07-13T10:58:29;22.50;99.90
35962;DHT22;22044;48.298;10.008;2023-07-13T11:01:17;22.30;99.90
35962;DHT22;22044;48.298;10.008;2023-07-13T11:04:03;22.50;99.90
35962;DHT22;22044;48.298;10.008;2023-07-13T11:06:52;22.30;99.90
35962;DHT22;22044;48.298;10.008;2023-07-13T11:09:40;22.40;99.90
35962;DHT22;22044;48.298;10.008;2023-07-13T11:12:52;22.40;99.90
35962;DHT22;22044;48.298;10.008;2023-07-13T11:15:44;21.70;99.90
35962;DHT22;22044;48.298;10.008;2023-07-13T11:18:30;21.50;99.90
35962;DHT22;22044;48.298;10.008;2023-07-13T11:21:16;21.60;99.90
35962;DHT22;22044;48.298;10.008;2023-07-13T11:24:04;21.80;99.90
35962;DHT22;22044;48.298;10.008;2023-07-13T11:26:52;22.30;99.90
35962;DHT22;22044;48.298;10.008;2023-07-13T11:29:38;22.40;99.90
35962;DHT22;22044;48.298;10.008;2023-07-13T11:32:25;22.50;99.90
35962;DHT22;22044;48.298;10.008;2023-07-13T11:35:22;22.60;99.90
35962;DHT22;22044;48.298;10.008;2023-07-13T11:38:14;23.00;99.90
35962;DHT22;22044;48.298;10.008;2023-07-13T11:41:04;23.00;99.90
35962;DHT22;22044;48.298;10.008;2023-07-13T11:43:54;23.20;99.90
35962;DHT22;22044;48.298;10.008;2023-07-13T11:46:45;23.10;99.90
35962;DHT22;22044;48.298;10.008;2023-07-13T11:49:32;22.50;99.90
35962;DHT22;22044;48.298;10.008;2023-07-13T11:52:33;22.50;99.90
35962;DHT22;22044;48.298;10.008;2023-07-13T11:55:23;22.90;99.90
35962;DHT22;22044;48.298;10.008;2023-07-13T11:58:11;22.50;99.90
35962;DHT22;22044;48.298;10.008;2023-07-13T12:01:01;22.80;99.90
35962;DHT22;22044;48.298;10.008;2023-07-13T12:03:49;22.90;99.90
35962;DHT22;22044;48.298;10.008;2023-07-13T12:06:36;22.40;99.90
35962;DHT22;22044;48.298;10.008;2023-07-13T12:09:27;22.50;99.90
35962;DHT22;22044;48.298;10.008;2023-07-13T12:12:20;22.70;99.90
35962;DHT22;22044;48.298;10.008;2023-07-13T12:15:07;22.60;99.90
35962;DHT22;22044;48.298;10.008;2023-07-13T12:17:55;22.60;99.90
35962;DHT22;22044;48.298;10.008;2023-07-13T12:20:41;22.10;99.90
35962;DHT22;22044;48.298;10.008;2023-07-13T12:23:29;22.20;99.90
35962;DHT22;22044;48.298;10.008;2023-07-13T12:26:17;22.10;99.90
35962;DHT22;22044;48.298;10.008;2023-07-13T12:29:06;22.20;99.90
35962;DHT22;22044;48.298;10.008;2023-07-13T12:31:51;22.40;99.90
35962;DHT22;22044;48.298;10.008;2023-07-13T12:34:51;22.50;99.90
35962;DHT22;22044;48.298;10.008;2023-07-13T12:37:41;22.70;99.90
35962;DHT22;22044;48.298;10.008;2023-07-13T12:40:31;22.80;99.90
35962;DHT22;22044;48.298;10.008;2023-07-13T12:43:20;22.80;99.90
35962;DHT22;22044;48.298;10.008;2023-07-13T12:46:17;22.60;99.90
35962;DHT22;22044;48.298;10.008;2023-07-13T12:49:06;22.90;99.90
35962;DHT22;22044;48.298;10.008;2023-07-13T12:51:57;23.10;99.90
35962;DHT22;22044;48.298;10.008;2023-07-13T12:54:53;23.40;99.90
35962;DHT22;22044;48.298;10.008;2023-07-13T12:57:43;23.40;99.90
35962;DHT22;22044;48.298;10.008;2023-07-13T13:00:31;23.80;99.90
35962;DHT22;22044;48.298;10.008;2023-07-13T13:03:25;24.30;99.90
35962;DHT22;22044;48.298;10.008;2023-07-13T13:06:22;24.50;99.90
35962;DHT22;22044;48.298;10.008;2023-07-13T13:09:13;24.60;99.90
35962;DHT22;22044;48.298;10.008;2023-07-13T13:11:58;24.30;99.90
35962;DHT22;22044;48.298;10.008;2023-07-13T13:14:45;24.20;99.90
35962;DHT22;22044;48.298;10.008;2023-07-13T13:17:33;24.40;99.90
35962;DHT22;22044;48.298;10.008;2023-07-13T13:20:20;24.50;99.90
35962;DHT22;22044;48.298;10.008;2023-07-13T13:23:09;24.10;99.90
35962;DHT22;22044;48.298;10.008;2023-07-13T13:25:57;23.70;99.90
35962;DHT22;22044;48.298;10.008;2023-07-13T13:28:43;24.20;99.90
35962;DHT22;22044;48.298;10.008;2023-07-13T13:31:29;24.70;99.90
35962;DHT22;22044;48.298;10.008;2023-07-13T13:34:16;24.90;99.90
35962;DHT22;22044;48.298;10.008;2023-07-13T13:37:03;25.10;99.90
35962;DHT22;22044;48.298;10.008;2023-07-13T13:39:50;25.30;99.90
35962;DHT22;22044;48.298;10.008;2023-07-13T13:42:38;25.30;99.90
35962;DHT22;22044;48.298;10.008;2023-07-13T13:45:24;25.40;99.90
35962;DHT22;22044;48.298;10.008;2023-07-13T13:48:14;25.20;99.90
35962;DHT22;22044;48.298;10.008;2023-07-13T13:51:03;25.50;99.90
35962;DHT22;22044;48.298;10.008;2023-07-13T13:53:51;25.70;99.90
35962;DHT22;22044;48.298;10.008;2023-07-13T13:56:38;25.70;99.90
35962;DHT22;22044;48.298;10.008;2023-07-13T13:59:25;25.70;99.90
35962;DHT22;22044;48.298;10.008;2023-07-13T14:02:22;25.50;99.90
35962;DHT22;22044;48.298;10.008;2023-07-13T14:05:12;24.90;99.90
35962;DHT22;22044;48.298;10.008;2023-07-13T14:07:57;25.00;99.90
35962;DHT22;22044;48.298;10.008;2023-07-13T14:10:45;25.00;99.90
35962;DHT22;22044;48.298;10.008;2023-07-13T14:13:34;24.70;99.90
35962;DHT22;22044;48.298;10.008;2023-07-13T14:16:26;24.30;99.90
35962;DHT22;22044;48.298;10.008;2023-07-13T14:19:14;24.00;99.90
35962;DHT22;22044;48.298;10.008;2023-07-13T14:21:59;24.10;99.90
35962;DHT22;22044;48.298;10.008;2023-07-13T14:24:45;24.20;99.90
35962;DHT22;22044;48.298;10.008;2023-07-13T14:27:30;24.70;99.90
35962;DHT22;22044;48.298;10.008;2023-07-13T14:30:18;24.70;99.90
35962;DHT22;22044;48.298;10.008;2023-07-13T14:33:08;24.50;99.90
35962;DHT22;22044;48.298;10.008;2023-07-13T14:35:54;24.90;99.90
35962;DHT22;22044;48.298;10.008;2023-07-13T14:38:40;24.60;99.90
35962;DHT22;22044;48.298;10.008;2023-07-13T14:41:26;23.90;99.90
35962;DHT22;22044;48.298;10.008;2023-07-13T14:44:12;24.40;99.90
35962;DHT22;22044;48.298;10.008;2023-07-13T14:47:00;25.10;99.90
35962;DHT22;22044;48.298;10.008;2023-07-13T14:49:49;24.80;99.90
35962;DHT22;22044;48.298;10.008;2023-07-13T14:52:35;24.60;99.90
35962;DHT22;22044;48.298;10.008;2023-07-13T14:55:20;23.80;99.90
35962;DHT22;22044;48.298;10.008;2023-07-13T14:58:06;23.40;99.90
35962;DHT22;22044;48.298;10.008;2023-07-13T15:00:52;23.80;99.90
35962;DHT22;22044;48.298;10.008;2023-07-13T15:03:44;24.20;99.90
35962;DHT22;22044;48.298;10.008;2023-07-13T15:06:53;24.20;99.90
35962;DHT22;22044;48.298;10.008;2023-07-13T15:09:38;23.70;99.90
35962;DHT22;22044;48.298;10.008;2023-07-13T15:12:24;24.00;99.90
35962;DHT22;22044;48.298;10.008;2023-07-13T15:15:09;24.20;99.90
35962;DHT22;22044;48.298;10.008;2023-07-13T15:17:55;24.20;99.90
35962;DHT22;22044;48.298;10.008;2023-07-13T15:20:41;24.40;99.90
35962;DHT22;22044;48.298;10.008;2023-07-13T15:23:28;24.10;99.90
35962;DHT22;22044;48.298;10.008;2023-07-13T15:26:17;24.50;99.90
35962;DHT22;22044;48.298;10.008;2023-07-13T15:29:03;25.00;99.90
35962;DHT22;22044;48.298;10.008;2023-07-13T15:31:49;25.10;99.90
35962;DHT22;22044;48.298;10.008;2023-07-13T15:34:35;25.60;99.90
35962;DHT22;22044;48.298;10.008;2023-07-13T15:37:20;25.70;99.90
35962;DHT22;22044;48.298;10.008;2023-07-13T15:40:07;24.80;99.90
35962;DHT22;22044;48.298;10.008;2023-07-13T15:42:54;24.50;99.90
35962;DHT22;22044;48.298;10.008;2023-07-13T15:45:40;24.30;99.90
35962;DHT22;22044;48.298;10.008;2023-07-13T15:48:27;24.80;99.90
35962;DHT22;22044;48.298;10.008;2023-07-13T15:51:20;24.80;99.90
35962;DHT22;22044;48.298;10.008;2023-07-13T15:54:11;24.70;99.90
35962;DHT22;22044;48.298;10.008;2023-07-13T15:57:01;24.30;99.90
35962;DHT22;22044;48.298;10.008;2023-07-13T15:59:48;24.30;99.90
35962;DHT22;22044;48.298;10.008;2023-07-13T16:02:33;24.20;99.90
35962;DHT22;22044;48.298;10.008;2023-07-13T16:05:20;24.20;99.90
35962;DHT22;22044;48.298;10.008;2023-07-13T16:08:16;24.60;99.90
35962;DHT22;22044;48.298;10.008;2023-07-13T16:11:07;25.00;99.90
35962;DHT22;22044;48.298;10.008;2023-07-13T16:13:58;25.30;99.90
35962;DHT22;22044;48.298;10.008;2023-07-13T16:16:45;25.60;99.90
35962;DHT22;22044;48.298;10.008;2023-07-13T16:19:33;25.60;99.90
35962;DHT22;22044;48.298;10.008;2023-07-13T16:22:19;25.30;99.90
35962;DHT22;22044;48.298;10.008;2023-07-13T16:25:13;25.00;99.90
35962;DHT22;22044;48.298;10.008;2023-07-13T16:27:59;25.30;99.90
35962;DHT22;22044;48.298;10.008;2023-07-13T16:30:47;25.60;99.90
35962;DHT22;22044;48.298;10.008;2023-07-13T16:33:35;25.70;99.90
35962;DHT22;22044;48.298;10.008;2023-07-13T16:36:21;25.80;99.90
35962;DHT22;22044;48.298;10.008;2023-07-13T16:39:11;25.10;99.90
35962;DHT22;22044;48.298;10.008;2023-07-13T16:41:58;25.20;99.90
35962;DHT22;22044;48.298;10.008;2023-07-13T16:44:44;25.50;99.90
35962;DHT22;22044;48.298;10.008;2023-07-13T16:47:30;25.80;99.90
35962;DHT22;22044;48.298;10.008;2023-07-13T16:50:18;25.50;99.90
35962;DHT22;22044;48.298;10.008;2023-07-13T16:53:04;24.80;99.90
35962;DHT22;22044;48.298;10.008;2023-07-13T16:55:56;25.20;99.90
35962;DHT22;22044;48.298;10.008;2023-07-13T16:58:44;25.60;99.90
35962;DHT22;22044;48.298;10.008;2023-07-13T17:01:30;25.20;99.90
35962;DHT22;22044;48.298;10.008;2023-07-13T17:04:16;25.40;99.90
35962;DHT22;22044;48.298;10.008;2023-07-13T17:07:09;25.80;99.90
35962;DHT22;22044;48.298;10.008;2023-07-13T17:09:55;24.80;99.90
35962;DHT22;22044;48.298;10.008;2023-07-13T17:12:40;24.30;99.90
35962;DHT22;22044;48.298;10.008;2023-07-13T17:15:27;24.10;99.90
35962;DHT22;22044;48.298;10.008;2023-07-13T17:18:14;24.50;99.90
35962;DHT22;22044;48.298;10.008;2023-07-13T17:21:00;25.00;99.90
35962;DHT22;22044;48.298;10.008;2023-07-13T17:23:47;25.30;99.90